sensor_id;sensor_type;location;lat;lon;timestamp;temperature;humidity
46758;DHT22;32509;47.750;-3.396;2023-07-22T00:00:50;18.10;99.90
46758;DHT22;32509;47.750;-3.396;2023-07-22T00:03:16;18.10;99.90
46758;DHT22;32509;47.750;-3.396;2023-07-22T00:05:42;18.10;99.90
46758;DHT22;32509;47.750;-3.396;2023-07-22T00:08:08;18.00;99.90
46758;DHT22;32509;47.750;-3.396;2023-07-22T00:10:33;18.10;99.90
46758;DHT22;32509;47.750;-3.396;2023-07-22T00:12:59;18.00;99.90
46758;DHT22;32509;47.750;-3.396;2023-07-22T00:15:25;18.00;99.90
46758;DHT22;32509;47.750;-3.396;2023-07-22T00:17:51;18.00;99.90
46758;DHT22;32509;47.750;-3.396;2023-07-22T00:20:17;18.00;99.90
46758;DHT22;32509;47.750;-3.396;2023-07-22T00:22:43;18.00;99.90
46758;DHT22;32509;47.750;-3.396;2023-07-22T00:25:14;18.00;99.90
46758;DHT22;32509;47.750;-3.396;2023-07-22T00:27:41;18.00;99.90
46758;DHT22;32509;47.750;-3.396;2023-07-22T00:30:07;17.90;99.90
46758;DHT22;32509;47.750;-3.396;2023-07-22T00:32:33;17.90;99.90
46758;DHT22;32509;47.750;-3.396;2023-07-22T00:34:59;17.90;99.90
46758;DHT22;32509;47.750;-3.396;2023-07-22T00:37:25;17.90;99.90
46758;DHT22;32509;47.750;-3.396;2023-07-22T00:39:51;17.90;99.90
46758;DHT22;32509;47.750;-3.396;2023-07-22T00:42:17;17.90;99.90
46758;DHT22;32509;47.750;-3.396;2023-07-22T00:44:43;17.80;99.90
46758;DHT22;32509;47.750;-3.396;2023-07-22T00:47:09;17.80;99.90
46758;DHT22;32509;47.750;-3.396;2023-07-22T00:49:36;17.80;99.90
46758;DHT22;32509;47.750;-3.396;2023-07-22T00:52:02;17.90;99.90
46758;DHT22;32509;47.750;-3.396;2023-07-22T00:54:29;17.80;99.90
46758;DHT22;32509;47.750;-3.396;2023-07-22T00:56:56;17.80;99.90
46758;DHT22;32509;47.750;-3.396;2023-07-22T00:59:23;17.80;99.90
46758;DHT22;32509;47.750;-3.396;2023-07-22T01:01:49;17.80;99.90
46758;DHT22;32509;47.750;-3.396;2023-07-22T01:04:16;17.80;99.90
46758;DHT22;32509;47.750;-3.396;2023-07-22T01:06:44;17.80;99.90
46758;DHT22;32509;47.750;-3.396;2023-07-22T01:09:10;17.80;99.90
46758;DHT22;32509;47.750;-3.396;2023-07-22T01:11:36;17.80;99.90
46758;DHT22;32509;47.750;-3.396;2023-07-22T01:14:02;17.80;99.90
46758;DHT22;32509;47.750;-3.396;2023-07-22T01:16:29;17.80;99.90
46758;DHT22;32509;47.750;-3.396;2023-07-22T01:18:55;17.80;99.90
46758;DHT22;32509;47.750;-3.396;2023-07-22T01:21:23;17.70;99.90
46758;DHT22;32509;47.750;-3.396;2023-07-22T01:23:49;17.70;99.90
46758;DHT22;32509;47.750;-3.396;2023-07-22T01:26:16;17.70;99.90
46758;DHT22;32509;47.750;-3.396;2023-07-22T01:28:41;17.70;99.90
46758;DHT22;32509;47.750;-3.396;2023-07-22T01:31:08;17.70;99.90
46758;DHT22;32509;47.750;-3.396;2023-07-22T01:33:34;17.70;99.90
46758;DHT22;32509;47.750;-3.396;2023-07-22T01:36:01;17.70;99.90
46758;DHT22;32509;47.750;-3.396;2023-07-22T01:38:27;17.70;99.90
46758;DHT22;32509;47.750;-3.396;2023-07-22T01:40:55;17.70;99.90
46758;DHT22;32509;47.750;-3.396;2023-07-22T01:43:21;17.70;99.90
46758;DHT22;32509;47.750;-3.396;2023-07-22T01:45:47;17.70;99.90
46758;DHT22;32509;47.750;-3.396;2023-07-22T01:48:13;17.70;99.90
46758;DHT22;32509;47.750;-3.396;2023-07-22T01:50:38;17.60;99.90
46758;DHT22;32509;47.750;-3.396;2023-07-22T01:53:04;17.60;99.90
46758;DHT22;32509;47.750;-3.396;2023-07-22T01:55:31;17.60;99.90
46758;DHT22;32509;47.750;-3.396;2023-07-22T01:57:58;17.60;99.90
46758;DHT22;32509;47.750;-3.396;2023-07-22T02:00:24;17.60;99.90
46758;DHT22;32509;47.750;-3.396;2023-07-22T02:02:50;17.60;99.90
46758;DHT22;32509;47.750;-3.396;2023-07-22T02:05:16;17.60;99.90
46758;DHT22;32509;47.750;-3.396;2023-07-22T02:07:41;17.60;99.90
46758;DHT22;32509;47.750;-3.396;2023-07-22T02:10:08;17.60;99.90
46758;DHT22;32509;47.750;-3.396;2023-07-22T02:12:35;17.60;99.90
46758;DHT22;32509;47.750;-3.396;2023-07-22T02:15:01;17.50;99.90
46758;DHT22;32509;47.750;-3.396;2023-07-22T02:17:28;17.50;99.90
46758;DHT22;32509;47.750;-3.396;2023-07-22T02:19:54;17.50;99.90
46758;DHT22;32509;47.750;-3.396;2023-07-22T02:22:20;17.50;99.90
46758;DHT22;32509;47.750;-3.396;2023-07-22T02:24:46;17.50;99.90
46758;DHT22;32509;47.750;-3.396;2023-07-22T02:27:11;17.50;99.90
46758;DHT22;32509;47.750;-3.396;2023-07-22T02:29:37;17.40;99.90
46758;DHT22;32509;47.750;-3.396;2023-07-22T02:32:03;17.40;99.90
46758;DHT22;32509;47.750;-3.396;2023-07-22T02:34:29;17.40;99.90
46758;DHT22;32509;47.750;-3.396;2023-07-22T02:36:55;17.40;99.90
46758;DHT22;32509;47.750;-3.396;2023-07-22T02:39:20;17.40;99.90
46758;DHT22;32509;47.750;-3.396;2023-07-22T02:41:47;17.40;99.90
46758;DHT22;32509;47.750;-3.396;2023-07-22T02:44:12;17.40;99.90
46758;DHT22;32509;47.750;-3.396;2023-07-22T02:46:38;17.40;99.90
46758;DHT22;32509;47.750;-3.396;2023-07-22T02:49:04;17.40;99.90
46758;DHT22;32509;47.750;-3.396;2023-07-22T02:51:30;17.40;99.90
46758;DHT22;32509;47.750;-3.396;2023-07-22T02:53:56;17.40;99.90
46758;DHT22;32509;47.750;-3.396;2023-07-22T02:56:22;17.40;99.90
46758;DHT22;32509;47.750;-3.396;2023-07-22T02:58:49;17.40;99.90
46758;DHT22;32509;47.750;-3.396;2023-07-22T03:01:15;17.40;99.90
46758;DHT22;32509;47.750;-3.396;2023-07-22T03:03:41;17.40;99.90
46758;DHT22;32509;47.750;-3.396;2023-07-22T03:06:07;17.40;99.90
46758;DHT22;32509;47.750;-3.396;2023-07-22T03:08:34;17.40;99.90
46758;DHT22;32509;47.750;-3.396;2023-07-22T03:11:00;17.30;99.90
46758;DHT22;32509;47.750;-3.396;2023-07-22T03:13:26;17.40;99.90
46758;DHT22;32509;47.750;-3.396;2023-07-22T03:15:55;17.40;99.90
46758;DHT22;32509;47.750;-3.396;2023-07-22T03:18:21;17.40;99.90
46758;DHT22;32509;47.750;-3.396;2023-07-22T03:20:47;17.40;99.90
46758;DHT22;32509;47.750;-3.396;2023-07-22T03:23:13;17.40;99.90
46758;DHT22;32509;47.750;-3.396;2023-07-22T03:25:39;17.40;99.90
46758;DHT22;32509;47.750;-3.396;2023-07-22T03:28:05;17.30;99.90
46758;DHT22;32509;47.750;-3.396;2023-07-22T03:30:32;17.40;99.90
46758;DHT22;32509;47.750;-3.396;2023-07-22T03:32:59;17.40;99.90
46758;DHT22;32509;47.750;-3.396;2023-07-22T03:35:26;17.30;99.90
46758;DHT22;32509;47.750;-3.396;2023-07-22T03:37:52;17.30;99.90
46758;DHT22;32509;47.750;-3.396;2023-07-22T03:40:17;17.30;99.90
46758;DHT22;32509;47.750;-3.396;2023-07-22T03:42:50;17.30;99.90
46758;DHT22;32509;47.750;-3.396;2023-07-22T03:45:17;17.30;99.90
46758;DHT22;32509;47.750;-3.396;2023-07-22T03:47:44;17.30;99.90
46758;DHT22;32509;47.750;-3.396;2023-07-22T03:50:11;17.30;99.90
46758;DHT22;32509;47.750;-3.396;2023-07-22T03:52:37;17.30;99.90
46758;DHT22;32509;47.750;-3.396;2023-07-22T03:55:03;17.30;99.90
46758;DHT22;32509;47.750;-3.396;2023-07-22T03:57:29;17.30;99.90
46758;DHT22;32509;47.750;-3.396;2023-07-22T03:59:55;17.30;99.90
46758;DHT22;32509;47.750;-3.396;2023-07-22T04:02:21;17.30;99.90
46758;DHT22;32509;47.750;-3.396;2023-07-22T04:04:47;17.30;99.90
46758;DHT22;32509;47.750;-3.396;2023-07-22T04:07:13;17.30;99.90
46758;DHT22;32509;47.750;-3.396;2023-07-22T04:09:40;17.30;99.90
46758;DHT22;32509;47.750;-3.396;2023-07-22T04:12:06;17.30;99.90
46758;DHT22;32509;47.750;-3.396;2023-07-22T04:14:32;17.30;99.90
46758;DHT22;32509;47.750;-3.396;2023-07-22T04:16:58;17.30;99.90
46758;DHT22;32509;47.750;-3.396;2023-07-22T04:19:24;17.30;99.90
46758;DHT22;32509;47.750;-3.396;2023-07-22T04:21:49;17.20;99.90
46758;DHT22;32509;47.750;-3.396;2023-07-22T04:24:15;17.20;99.90
46758;DHT22;32509;47.750;-3.396;2023-07-22T04:26:44;17.20;99.90
46758;DHT22;32509;47.750;-3.396;2023-07-22T04:29:10;17.20;99.90
46758;DHT22;32509;47.750;-3.396;2023-07-22T04:31:37;17.20;99.90
46758;DHT22;32509;47.750;-3.396;2023-07-22T04:34:03;17.20;99.90
46758;DHT22;32509;47.750;-3.396;2023-07-22T04:36:31;17.20;99.90
46758;DHT22;32509;47.750;-3.396;2023-07-22T04:38:56;17.20;99.90
46758;DHT22;32509;47.750;-3.396;2023-07-22T04:41:22;17.20;99.90
46758;DHT22;32509;47.750;-3.396;2023-07-22T04:43:48;17.20;99.90
46758;DHT22;32509;47.750;-3.396;2023-07-22T04:46:16;17.20;99.90
46758;DHT22;32509;47.750;-3.396;2023-07-22T04:48:42;17.20;99.90
46758;DHT22;32509;47.750;-3.396;2023-07-22T04:51:07;17.20;99.90
46758;DHT22;32509;47.750;-3.396;2023-07-22T04:53:33;17.20;99.90
46758;DHT22;32509;47.750;-3.396;2023-07-22T04:55:59;17.20;99.90
46758;DHT22;32509;47.750;-3.396;2023-07-22T04:58:25;17.20;99.90
46758;DHT22;32509;47.750;-3.396;2023-07-22T05:00:51;17.20;99.90
46758;DHT22;32509;47.750;-3.396;2023-07-22T05:03:17;17.20;99.90
46758;DHT22;32509;47.750;-3.396;2023-07-22T05:05:44;17.20;99.90
46758;DHT22;32509;47.750;-3.396;2023-07-22T05:08:10;17.20;99.90
46758;DHT22;32509;47.750;-3.396;2023-07-22T05:10:39;17.20;99.90
46758;DHT22;32509;47.750;-3.396;2023-07-22T05:13:05;17.20;99.90
46758;DHT22;32509;47.750;-3.396;2023-07-22T05:15:31;17.20;99.90
46758;DHT22;32509;47.750;-3.396;2023-07-22T05:17:56;17.20;99.90
46758;DHT22;32509;47.750;-3.396;2023-07-22T05:20:22;17.20;99.90
46758;DHT22;32509;47.750;-3.396;2023-07-22T05:22:48;17.10;99.90
46758;DHT22;32509;47.750;-3.396;2023-07-22T05:25:21;17.20;99.90
46758;DHT22;32509;47.750;-3.396;2023-07-22T05:27:47;17.20;99.90
46758;DHT22;32509;47.750;-3.396;2023-07-22T05:30:12;17.20;99.90
46758;DHT22;32509;47.750;-3.396;2023-07-22T05:32:38;17.20;99.90
46758;DHT22;32509;47.750;-3.396;2023-07-22T05:35:04;17.20;99.90
46758;DHT22;32509;47.750;-3.396;2023-07-22T05:37:31;17.20;99.90
46758;DHT22;32509;47.750;-3.396;2023-07-22T05:39:57;17.30;99.90
46758;DHT22;32509;47.750;-3.396;2023-07-22T05:42:23;17.30;99.90
46758;DHT22;32509;47.750;-3.396;2023-07-22T05:44:49;17.30;99.90
46758;DHT22;32509;47.750;-3.396;2023-07-22T05:47:15;17.30;99.90
46758;DHT22;32509;47.750;-3.396;2023-07-22T05:49:40;17.30;99.90
46758;DHT22;32509;47.750;-3.396;2023-07-22T05:52:06;17.30;99.90
46758;DHT22;32509;47.750;-3.396;2023-07-22T05:54:32;17.30;99.90
46758;DHT22;32509;47.750;-3.396;2023-07-22T05:56:58;17.40;99.90
46758;DHT22;32509;47.750;-3.396;2023-07-22T05:59:24;17.40;99.90
46758;DHT22;32509;47.750;-3.396;2023-07-22T06:01:50;17.40;99.90
46758;DHT22;32509;47.750;-3.396;2023-07-22T06:04:15;17.40;99.90
46758;DHT22;32509;47.750;-3.396;2023-07-22T06:06:41;17.40;99.90
46758;DHT22;32509;47.750;-3.396;2023-07-22T06:09:07;17.40;99.90
46758;DHT22;32509;47.750;-3.396;2023-07-22T06:11:33;17.50;99.90
46758;DHT22;32509;47.750;-3.396;2023-07-22T06:13:58;17.50;99.90
46758;DHT22;32509;47.750;-3.396;2023-07-22T06:16:24;17.50;99.90
46758;DHT22;32509;47.750;-3.396;2023-07-22T06:18:50;17.50;99.90
46758;DHT22;32509;47.750;-3.396;2023-07-22T06:21:16;17.50;99.90
46758;DHT22;32509;47.750;-3.396;2023-07-22T06:23:41;17.60;99.90
46758;DHT22;32509;47.750;-3.396;2023-07-22T06:26:07;17.60;99.90
46758;DHT22;32509;47.750;-3.396;2023-07-22T06:28:33;17.60;99.90
46758;DHT22;32509;47.750;-3.396;2023-07-22T06:30:59;17.60;99.90
46758;DHT22;32509;47.750;-3.396;2023-07-22T06:33:24;17.70;99.90
46758;DHT22;32509;47.750;-3.396;2023-07-22T06:35:50;17.70;99.90
46758;DHT22;32509;47.750;-3.396;2023-07-22T06:38:16;17.70;99.90
46758;DHT22;32509;47.750;-3.396;2023-07-22T06:40:41;17.70;99.90
46758;DHT22;32509;47.750;-3.396;2023-07-22T06:43:07;17.70;99.90
46758;DHT22;32509;47.750;-3.396;2023-07-22T06:45:33;17.80;99.90
46758;DHT22;32509;47.750;-3.396;2023-07-22T06:47:59;17.80;99.90
46758;DHT22;32509;47.750;-3.396;2023-07-22T06:50:24;17.80;99.90
46758;DHT22;32509;47.750;-3.396;2023-07-22T06:52:50;17.80;99.90
46758;DHT22;32509;47.750;-3.396;2023-07-22T06:55:16;17.90;99.90
46758;DHT22;32509;47.750;-3.396;2023-07-22T06:57:42;17.90;99.90
46758;DHT22;32509;47.750;-3.396;2023-07-22T07:00:09;17.90;99.90
46758;DHT22;32509;47.750;-3.396;2023-07-22T07:02:35;17.90;99.90
46758;DHT22;32509;47.750;-3.396;2023-07-22T07:05:01;17.90;99.90
46758;DHT22;32509;47.750;-3.396;2023-07-22T07:07:27;17.90;99.90
46758;DHT22;32509;47.750;-3.396;2023-07-22T07:09:53;18.00;99.90
46758;DHT22;32509;47.750;-3.396;2023-07-22T07:12:19;18.00;99.90
46758;DHT22;32509;47.750;-3.396;2023-07-22T07:14:45;18.00;99.90
46758;DHT22;32509;47.750;-3.396;2023-07-22T07:17:10;18.10;99.90
46758;DHT22;32509;47.750;-3.396;2023-07-22T07:19:36;18.10;99.90
46758;DHT22;32509;47.750;-3.396;2023-07-22T07:22:02;18.10;99.90
46758;DHT22;32509;47.750;-3.396;2023-07-22T07:24:28;18.10;99.90
46758;DHT22;32509;47.750;-3.396;2023-07-22T07:26:54;18.10;99.90
46758;DHT22;32509;47.750;-3.396;2023-07-22T07:29:19;18.20;99.90
46758;DHT22;32509;47.750;-3.396;2023-07-22T07:31:45;18.20;99.90
46758;DHT22;32509;47.750;-3.396;2023-07-22T07:34:11;18.20;99.90
46758;DHT22;32509;47.750;-3.396;2023-07-22T07:36:36;18.20;99.90
46758;DHT22;32509;47.750;-3.396;2023-07-22T07:39:02;18.20;99.90
46758;DHT22;32509;47.750;-3.396;2023-07-22T07:41:29;18.20;99.90
46758;DHT22;32509;47.750;-3.396;2023-07-22T07:43:55;18.30;99.90
46758;DHT22;32509;47.750;-3.396;2023-07-22T07:46:29;18.30;99.90
46758;DHT22;32509;47.750;-3.396;2023-07-22T07:48:57;18.30;99.90
46758;DHT22;32509;47.750;-3.396;2023-07-22T07:51:25;18.40;99.90
46758;DHT22;32509;47.750;-3.396;2023-07-22T07:53:52;18.40;99.90
46758;DHT22;32509;47.750;-3.396;2023-07-22T07:56:19;18.40;99.90
46758;DHT22;32509;47.750;-3.396;2023-07-22T07:58:46;18.50;99.90
46758;DHT22;32509;47.750;-3.396;2023-07-22T08:01:13;18.50;99.90
46758;DHT22;32509;47.750;-3.396;2023-07-22T08:03:40;18.50;99.90
46758;DHT22;32509;47.750;-3.396;2023-07-22T08:06:07;18.50;99.90
46758;DHT22;32509;47.750;-3.396;2023-07-22T08:08:33;18.60;99.90
46758;DHT22;32509;47.750;-3.396;2023-07-22T08:11:04;18.60;99.90
46758;DHT22;32509;47.750;-3.396;2023-07-22T08:13:30;18.60;99.90
46758;DHT22;32509;47.750;-3.396;2023-07-22T08:15:57;18.70;99.90
46758;DHT22;32509;47.750;-3.396;2023-07-22T08:18:24;18.70;99.90
46758;DHT22;32509;47.750;-3.396;2023-07-22T08:20:51;18.70;99.90
46758;DHT22;32509;47.750;-3.396;2023-07-22T08:23:18;18.80;99.90
46758;DHT22;32509;47.750;-3.396;2023-07-22T08:25:44;18.80;99.90
46758;DHT22;32509;47.750;-3.396;2023-07-22T08:28:09;18.80;99.90
46758;DHT22;32509;47.750;-3.396;2023-07-22T08:30:35;18.80;99.90
46758;DHT22;32509;47.750;-3.396;2023-07-22T08:33:02;18.80;99.90
46758;DHT22;32509;47.750;-3.396;2023-07-22T08:35:27;18.80;99.90
46758;DHT22;32509;47.750;-3.396;2023-07-22T08:37:53;18.90;99.90
46758;DHT22;32509;47.750;-3.396;2023-07-22T08:40:20;19.00;99.90
46758;DHT22;32509;47.750;-3.396;2023-07-22T08:42:46;19.00;99.90
46758;DHT22;32509;47.750;-3.396;2023-07-22T08:45:14;19.10;99.90
46758;DHT22;32509;47.750;-3.396;2023-07-22T08:47:46;19.00;99.90
46758;DHT22;32509;47.750;-3.396;2023-07-22T08:50:17;19.00;99.90
46758;DHT22;32509;47.750;-3.396;2023-07-22T08:52:44;19.10;99.90
46758;DHT22;32509;47.750;-3.396;2023-07-22T08:55:11;19.10;99.90
46758;DHT22;32509;47.750;-3.396;2023-07-22T08:57:38;19.10;99.90
46758;DHT22;32509;47.750;-3.396;2023-07-22T09:00:05;19.10;99.90
46758;DHT22;32509;47.750;-3.396;2023-07-22T09:02:35;19.20;99.90
46758;DHT22;32509;47.750;-3.396;2023-07-22T09:05:02;19.20;99.90
46758;DHT22;32509;47.750;-3.396;2023-07-22T09:07:28;19.20;99.90
46758;DHT22;32509;47.750;-3.396;2023-07-22T09:09:55;19.20;99.90
46758;DHT22;32509;47.750;-3.396;2023-07-22T09:12:21;19.20;99.90
46758;DHT22;32509;47.750;-3.396;2023-07-22T09:14:48;19.30;99.90
46758;DHT22;32509;47.750;-3.396;2023-07-22T09:17:15;19.30;99.90
46758;DHT22;32509;47.750;-3.396;2023-07-22T09:19:40;19.30;99.90
46758;DHT22;32509;47.750;-3.396;2023-07-22T09:22:07;19.30;99.90
46758;DHT22;32509;47.750;-3.396;2023-07-22T09:24:33;19.30;99.90
46758;DHT22;32509;47.750;-3.396;2023-07-22T09:26:59;19.30;99.90
46758;DHT22;32509;47.750;-3.396;2023-07-22T09:29:39;19.40;99.90
46758;DHT22;32509;47.750;-3.396;2023-07-22T09:32:10;19.40;99.90
46758;DHT22;32509;47.750;-3.396;2023-07-22T09:34:35;19.40;99.90
46758;DHT22;32509;47.750;-3.396;2023-07-22T09:37:01;19.40;99.90
46758;DHT22;32509;47.750;-3.396;2023-07-22T09:39:29;19.40;99.90
46758;DHT22;32509;47.750;-3.396;2023-07-22T09:41:55;19.40;99.90
46758;DHT22;32509;47.750;-3.396;2023-07-22T09:44:22;19.40;99.90
46758;DHT22;32509;47.750;-3.396;2023-07-22T09:46:51;19.40;99.90
46758;DHT22;32509;47.750;-3.396;2023-07-22T09:49:18;19.50;99.90
46758;DHT22;32509;47.750;-3.396;2023-07-22T09:51:44;19.50;99.90
46758;DHT22;32509;47.750;-3.396;2023-07-22T09:54:10;19.50;99.90
46758;DHT22;32509;47.750;-3.396;2023-07-22T09:56:49;19.50;99.90
46758;DHT22;32509;47.750;-3.396;2023-07-22T09:59:18;19.60;99.90
46758;DHT22;32509;47.750;-3.396;2023-07-22T10:01:44;19.60;99.90
46758;DHT22;32509;47.750;-3.396;2023-07-22T10:04:16;19.60;99.90
46758;DHT22;32509;47.750;-3.396;2023-07-22T10:06:43;19.60;99.90
46758;DHT22;32509;47.750;-3.396;2023-07-22T10:09:11;19.60;99.90
46758;DHT22;32509;47.750;-3.396;2023-07-22T10:11:37;19.60;99.90
46758;DHT22;32509;47.750;-3.396;2023-07-22T10:14:05;19.60;99.90
46758;DHT22;32509;47.750;-3.396;2023-07-22T10:16:31;19.70;99.90
46758;DHT22;32509;47.750;-3.396;2023-07-22T10:18:59;19.60;99.90
46758;DHT22;32509;47.750;-3.396;2023-07-22T10:21:25;19.70;99.90
46758;DHT22;32509;47.750;-3.396;2023-07-22T10:23:52;19.70;99.90
46758;DHT22;32509;47.750;-3.396;2023-07-22T10:26:19;19.80;99.90
46758;DHT22;32509;47.750;-3.396;2023-07-22T10:28:46;19.90;99.90
46758;DHT22;32509;47.750;-3.396;2023-07-22T10:31:13;19.90;99.90
46758;DHT22;32509;47.750;-3.396;2023-07-22T10:33:39;19.90;99.90
46758;DHT22;32509;47.750;-3.396;2023-07-22T10:36:09;19.90;99.90
46758;DHT22;32509;47.750;-3.396;2023-07-22T10:38:38;20.00;99.90
46758;DHT22;32509;47.750;-3.396;2023-07-22T10:41:15;20.00;99.90
46758;DHT22;32509;47.750;-3.396;2023-07-22T10:43:58;20.10;99.90
46758;DHT22;32509;47.750;-3.396;2023-07-22T10:46:38;20.00;99.90
46758;DHT22;32509;47.750;-3.396;2023-07-22T10:49:10;20.10;99.90
46758;DHT22;32509;47.750;-3.396;2023-07-22T10:51:37;20.10;99.90
46758;DHT22;32509;47.750;-3.396;2023-07-22T10:54:10;20.10;99.90
46758;DHT22;32509;47.750;-3.396;2023-07-22T10:56:36;20.10;99.90
46758;DHT22;32509;47.750;-3.396;2023-07-22T10:59:02;20.10;99.90
46758;DHT22;32509;47.750;-3.396;2023-07-22T11:01:35;20.10;99.90
46758;DHT22;32509;47.750;-3.396;2023-07-22T11:12:07;20.20;99.90
46758;DHT22;32509;47.750;-3.396;2023-07-22T11:14:34;20.30;99.90
46758;DHT22;32509;47.750;-3.396;2023-07-22T11:17:02;20.30;99.90
46758;DHT22;32509;47.750;-3.396;2023-07-22T11:19:30;20.20;99.90
46758;DHT22;32509;47.750;-3.396;2023-07-22T11:21:56;20.30;99.90
46758;DHT22;32509;47.750;-3.396;2023-07-22T11:24:23;20.30;99.90
46758;DHT22;32509;47.750;-3.396;2023-07-22T11:26:50;20.40;99.90
46758;DHT22;32509;47.750;-3.396;2023-07-22T11:29:18;20.40;99.90
46758;DHT22;32509;47.750;-3.396;2023-07-22T11:31:46;20.40;99.90
46758;DHT22;32509;47.750;-3.396;2023-07-22T11:34:14;20.40;99.90
46758;DHT22;32509;47.750;-3.396;2023-07-22T11:36:40;20.40;99.90
46758;DHT22;32509;47.750;-3.396;2023-07-22T11:39:09;20.40;99.90
46758;DHT22;32509;47.750;-3.396;2023-07-22T11:41:36;20.40;99.90
46758;DHT22;32509;47.750;-3.396;2023-07-22T11:44:03;20.40;99.90
46758;DHT22;32509;47.750;-3.396;2023-07-22T11:46:35;20.40;99.90
46758;DHT22;32509;47.750;-3.396;2023-07-22T11:49:02;20.50;99.90
46758;DHT22;32509;47.750;-3.396;2023-07-22T11:51:28;20.50;99.90
46758;DHT22;32509;47.750;-3.396;2023-07-22T11:53:54;20.50;99.90
46758;DHT22;32509;47.750;-3.396;2023-07-22T11:56:25;20.60;99.90
46758;DHT22;32509;47.750;-3.396;2023-07-22T11:58:53;20.60;99.90
46758;DHT22;32509;47.750;-3.396;2023-07-22T12:01:19;20.60;99.90
46758;DHT22;32509;47.750;-3.396;2023-07-22T12:03:46;20.60;99.90
46758;DHT22;32509;47.750;-3.396;2023-07-22T12:06:13;20.70;99.90
46758;DHT22;32509;47.750;-3.396;2023-07-22T12:08:47;20.60;99.90
46758;DHT22;32509;47.750;-3.396;2023-07-22T12:11:24;20.60;99.90
46758;DHT22;32509;47.750;-3.396;2023-07-22T12:14:15;20.60;99.90
46758;DHT22;32509;47.750;-3.396;2023-07-22T12:16:42;20.60;99.90
46758;DHT22;32509;47.750;-3.396;2023-07-22T12:19:09;20.60;99.90
46758;DHT22;32509;47.750;-3.396;2023-07-22T12:21:35;20.70;99.90
46758;DHT22;32509;47.750;-3.396;2023-07-22T12:24:02;20.70;99.90
46758;DHT22;32509;47.750;-3.396;2023-07-22T12:26:29;20.70;99.90
46758;DHT22;32509;47.750;-3.396;2023-07-22T12:28:55;20.60;99.90
46758;DHT22;32509;47.750;-3.396;2023-07-22T12:31:21;20.60;99.90
46758;DHT22;32509;47.750;-3.396;2023-07-22T12:33:47;20.60;99.90
46758;DHT22;32509;47.750;-3.396;2023-07-22T12:36:13;20.60;99.90
46758;DHT22;32509;47.750;-3.396;2023-07-22T12:38:39;20.60;99.90
46758;DHT22;32509;47.750;-3.396;2023-07-22T12:41:05;20.60;99.90
46758;DHT22;32509;47.750;-3.396;2023-07-22T12:43:30;20.60;99.90
46758;DHT22;32509;47.750;-3.396;2023-07-22T12:45:56;20.60;99.90
46758;DHT22;32509;47.750;-3.396;2023-07-22T12:48:22;20.70;99.90
46758;DHT22;32509;47.750;-3.396;2023-07-22T12:50:50;20.60;99.90
46758;DHT22;32509;47.750;-3.396;2023-07-22T12:53:16;20.60;99.90
46758;DHT22;32509;47.750;-3.396;2023-07-22T12:55:42;20.60;99.90
46758;DHT22;32509;47.750;-3.396;2023-07-22T12:58:10;20.60;99.90
46758;DHT22;32509;47.750;-3.396;2023-07-22T13:00:36;20.60;99.90
46758;DHT22;32509;47.750;-3.396;2023-07-22T13:03:01;20.70;99.90
46758;DHT22;32509;47.750;-3.396;2023-07-22T13:05:27;20.60;99.90
46758;DHT22;32509;47.750;-3.396;2023-07-22T13:07:53;20.70;99.90
46758;DHT22;32509;47.750;-3.396;2023-07-22T13:10:19;20.70;99.90
46758;DHT22;32509;47.750;-3.396;2023-07-22T13:12:47;20.70;99.90
46758;DHT22;32509;47.750;-3.396;2023-07-22T13:15:13;20.60;99.90
46758;DHT22;32509;47.750;-3.396;2023-07-22T13:17:38;20.60;99.90
46758;DHT22;32509;47.750;-3.396;2023-07-22T13:20:07;20.60;99.90
46758;DHT22;32509;47.750;-3.396;2023-07-22T13:22:35;20.60;99.90
46758;DHT22;32509;47.750;-3.396;2023-07-22T13:25:02;20.60;99.90
46758;DHT22;32509;47.750;-3.396;2023-07-22T13:27:28;20.70;99.90
46758;DHT22;32509;47.750;-3.396;2023-07-22T13:29:54;20.60;99.90
46758;DHT22;32509;47.750;-3.396;2023-07-22T13:32:20;20.60;99.90
46758;DHT22;32509;47.750;-3.396;2023-07-22T13:34:46;20.60;99.90
46758;DHT22;32509;47.750;-3.396;2023-07-22T13:37:12;20.70;99.90
46758;DHT22;32509;47.750;-3.396;2023-07-22T13:39:37;20.70;99.90
46758;DHT22;32509;47.750;-3.396;2023-07-22T13:42:03;20.70;99.90
46758;DHT22;32509;47.750;-3.396;2023-07-22T13:44:29;20.70;99.90
46758;DHT22;32509;47.750;-3.396;2023-07-22T13:46:55;20.80;99.90
46758;DHT22;32509;47.750;-3.396;2023-07-22T13:49:20;20.80;99.90
46758;DHT22;32509;47.750;-3.396;2023-07-22T13:51:46;20.70;99.90
46758;DHT22;32509;47.750;-3.396;2023-07-22T13:54:12;20.70;99.90
46758;DHT22;32509;47.750;-3.396;2023-07-22T13:56:38;20.70;99.90
46758;DHT22;32509;47.750;-3.396;2023-07-22T13:59:03;20.70;99.90
46758;DHT22;32509;47.750;-3.396;2023-07-22T14:01:30;20.70;99.90
46758;DHT22;32509;47.750;-3.396;2023-07-22T14:03:56;20.70;99.90
46758;DHT22;32509;47.750;-3.396;2023-07-22T14:06:23;20.70;99.90
46758;DHT22;32509;47.750;-3.396;2023-07-22T14:08:48;20.80;99.90
46758;DHT22;32509;47.750;-3.396;2023-07-22T14:11:14;20.80;99.90
46758;DHT22;32509;47.750;-3.396;2023-07-22T14:13:40;20.70;99.90
46758;DHT22;32509;47.750;-3.396;2023-07-22T14:16:06;20.70;99.90
46758;DHT22;32509;47.750;-3.396;2023-07-22T14:18:31;20.60;99.90
46758;DHT22;32509;47.750;-3.396;2023-07-22T14:20:58;20.60;99.90
46758;DHT22;32509;47.750;-3.396;2023-07-22T14:23:24;20.70;99.90
46758;DHT22;32509;47.750;-3.396;2023-07-22T14:25:50;20.70;99.90
46758;DHT22;32509;47.750;-3.396;2023-07-22T14:28:16;20.70;99.90
46758;DHT22;32509;47.750;-3.396;2023-07-22T14:30:42;20.70;99.90
46758;DHT22;32509;47.750;-3.396;2023-07-22T14:33:07;20.70;99.90
46758;DHT22;32509;47.750;-3.396;2023-07-22T14:35:33;20.70;99.90
46758;DHT22;32509;47.750;-3.396;2023-07-22T14:38:00;20.70;99.90
46758;DHT22;32509;47.750;-3.396;2023-07-22T14:40:26;20.80;99.90
46758;DHT22;32509;47.750;-3.396;2023-07-22T14:42:52;20.80;99.90
46758;DHT22;32509;47.750;-3.396;2023-07-22T14:45:17;20.70;99.90
46758;DHT22;32509;47.750;-3.396;2023-07-22T14:47:43;20.70;99.90
46758;DHT22;32509;47.750;-3.396;2023-07-22T14:50:09;20.70;99.90
46758;DHT22;32509;47.750;-3.396;2023-07-22T14:52:35;20.70;99.90
46758;DHT22;32509;47.750;-3.396;2023-07-22T14:55:01;20.70;99.90
46758;DHT22;32509;47.750;-3.396;2023-07-22T14:57:27;20.60;99.90
46758;DHT22;32509;47.750;-3.396;2023-07-22T14:59:55;20.60;99.90
46758;DHT22;32509;47.750;-3.396;2023-07-22T15:02:21;20.70;99.90
46758;DHT22;32509;47.750;-3.396;2023-07-22T15:04:47;20.70;99.90
46758;DHT22;32509;47.750;-3.396;2023-07-22T15:07:14;20.60;99.90
46758;DHT22;32509;47.750;-3.396;2023-07-22T15:09:39;20.60;99.90
46758;DHT22;32509;47.750;-3.396;2023-07-22T15:12:05;20.60;99.90
46758;DHT22;32509;47.750;-3.396;2023-07-22T15:14:33;20.60;99.90
46758;DHT22;32509;47.750;-3.396;2023-07-22T15:16:59;20.60;99.90
46758;DHT22;32509;47.750;-3.396;2023-07-22T15:19:25;20.60;99.90